Time;durP1;ratioP1;P1;durP2;ratioP2;P2;SDS_P1;SDS_P2;PMS_P1;PMS_P2;Temp;Humidity;BMP_temperature;BMP_pressure;BME280_temperature;BME280_humidity;BME280_pressure;Samples;Min_cycle;Max_cycle;Signal;HPM_P1;HPM_P2
2022/07/20 00:01:27;;;;;;;12.02;5.60;;;25.30;48.40;;;24.64;35.97;97338.84;5069606;28;20403;-76
2022/07/20 00:03:52;;;;;;;7.30;4.57;;;25.20;48.30;;;24.50;36.34;97338.44;5069951;28;20426;-76
2022/07/20 00:06:18;;;;;;;8.17;4.40;;;25.10;48.60;;;24.40;36.69;97342.41;5069827;28;20403;-76
2022/07/20 00:11:29;;;;;;;9.35;5.00;;;25.00;48.90;;;24.39;36.79;97342.75;5069497;28;20398;-76
2022/07/20 00:13:59;;;;;;;9.23;4.80;;;25.00;49.20;;;24.22;37.01;97336.47;5069898;28;20399;-76
2022/07/20 00:16:29;;;;;;;12.02;4.57;;;24.90;49.30;;;24.19;37.07;97339.84;5069730;28;20680;-76
2022/07/20 00:18:55;;;;;;;12.07;5.03;;;24.80;49.30;;;24.17;37.30;97342.09;5069277;28;20804;-76
2022/07/20 00:21:21;;;;;;;7.68;4.53;;;24.80;49.40;;;24.17;37.12;97336.66;5069495;28;20392;-76
2022/07/20 00:23:47;;;;;;;10.40;4.53;;;24.80;49.40;;;24.08;37.29;97332.50;5069620;28;20907;-76
2022/07/20 00:26:14;;;;;;;9.02;5.35;;;24.70;49.50;;;24.03;37.26;97332.75;5069840;28;20400;-76
2022/07/20 00:28:40;;;;;;;10.68;4.78;;;24.70;49.60;;;24.00;37.40;97331.50;5068889;28;20823;-76
2022/07/20 00:31:06;;;;;;;10.82;4.70;;;24.60;49.70;;;23.92;37.60;97322.38;5069409;28;20406;-76
2022/07/20 00:33:33;;;;;;;9.52;4.70;;;24.60;50.00;;;23.85;37.64;97322.16;5069675;28;20433;-76
2022/07/20 00:35:59;;;;;;;10.00;4.65;;;24.50;50.10;;;23.80;37.71;97327.78;5069675;28;20414;-76
2022/07/20 00:38:25;;;;;;;9.10;5.05;;;24.40;50.10;;;23.76;37.95;97326.88;5067658;28;20423;-76
2022/07/20 00:40:52;;;;;;;8.02;4.50;;;24.40;50.20;;;23.77;38.05;97330.38;5069266;28;20407;-76
2022/07/20 00:43:18;;;;;;;6.80;4.57;;;24.40;50.40;;;23.76;37.84;97324.19;5069646;28;20407;-76
2022/07/20 00:45:45;;;;;;;8.20;4.40;;;24.40;50.50;;;23.69;38.18;97332.06;5069281;28;20415;-76
2022/07/20 00:48:11;;;;;;;7.38;4.55;;;24.30;50.60;;;23.67;38.17;97330.84;5068834;28;20529;-76
2022/07/20 00:50:39;;;;;;;8.60;4.85;;;24.30;50.60;;;23.61;38.39;97327.53;5068867;28;20415;-76
2022/07/20 00:53:05;;;;;;;8.95;4.40;;;24.30;50.80;;;23.56;38.43;97324.28;5069213;28;20926;-76
2022/07/20 00:55:31;;;;;;;8.18;4.22;;;24.20;51.00;;;23.49;38.69;97331.03;5069169;28;20396;-76
2022/07/20 00:57:57;;;;;;;11.00;4.65;;;24.20;51.20;;;23.58;38.81;97332.84;5069062;28;20513;-76
2022/07/20 01:00:23;;;;;;;7.55;4.70;;;24.20;51.20;;;23.45;39.03;97337.44;5068189;28;20904;-76
2022/07/20 01:02:49;;;;;;;9.48;4.95;;;24.10;51.50;;;23.40;39.06;97332.22;5072505;28;20440;-76
2022/07/20 01:05:15;;;;;;;7.35;4.88;;;24.00;51.60;;;23.37;39.08;97339.09;5072654;28;20423;-76
2022/07/20 01:07:44;;;;;;;7.90;4.68;;;24.00;51.60;;;23.30;39.16;97338.06;5072641;28;20784;-76
2022/07/20 01:10:12;;;;;;;9.05;4.80;;;23.90;51.80;;;23.25;39.45;97341.75;5071664;28;20884;-76
2022/07/20 01:12:38;;;;;;;9.63;4.77;;;23.90;51.80;;;23.19;39.56;97335.00;5072832;28;20470;-76
2022/07/20 01:15:06;;;;;;;9.68;4.45;;;23.80;52.00;;;23.12;39.49;97340.94;5072440;28;20395;-76
2022/07/20 01:17:32;;;;;;;7.93;4.50;;;23.80;52.00;;;23.10;39.71;97334.28;5072465;28;20490;-76
2022/07/20 01:19:58;;;;;;;12.63;4.65;;;23.80;52.10;;;23.11;39.48;97338.56;5071794;28;20899;-76
2022/07/20 01:22:25;;;;;;;9.18;4.82;;;23.80;52.00;;;23.04;39.90;97341.81;5072398;28;20456;-76
2022/07/20 01:24:51;;;;;;;13.10;4.95;;;23.70;52.30;;;23.01;39.98;97333.56;5072426;28;20460;-76
2022/07/20 01:27:17;;;;;;;10.82;5.10;;;23.70;52.40;;;22.96;39.85;97329.19;5072494;28;20399;-76
2022/07/20 01:29:43;;;;;;;12.18;5.03;;;23.60;52.30;;;22.99;39.93;97333.16;5071596;28;20772;-76
2022/07/20 01:32:09;;;;;;;7.60;5.25;;;23.60;52.60;;;22.91;40.35;97326.72;5072274;28;20494;-76
2022/07/20 01:34:35;;;;;;;10.70;4.80;;;23.60;52.80;;;22.89;40.17;97322.75;5072331;28;20403;-76
2022/07/20 01:37:01;;;;;;;7.70;4.93;;;23.50;52.70;;;22.83;40.30;97332.19;5072218;28;20907;-76
2022/07/20 01:39:28;;;;;;;10.50;4.73;;;23.40;52.70;;;22.78;40.65;97325.06;5070271;28;20416;-76
2022/07/20 01:41:54;;;;;;;7.20;4.80;;;23.40;53.00;;;22.81;40.55;97335.19;5071897;28;20407;-77
2022/07/20 01:44:23;;;;;;;9.63;5.13;;;23.40;53.20;;;22.72;40.60;97321.75;5071705;28;20410;-76
2022/07/20 01:46:49;;;;;;;8.52;4.82;;;23.40;53.20;;;22.67;40.88;97326.56;5071877;28;20407;-76
2022/07/20 01:49:15;;;;;;;8.98;4.97;;;23.30;53.30;;;22.69;40.87;97322.44;5085181;22;20769;-73
2022/07/20 01:51:41;;;;;;;7.72;5.10;;;23.30;53.30;;;22.63;41.12;97326.44;5071732;28;20848;-73
2022/07/20 01:54:07;;;;;;;6.85;4.53;;;23.30;53.60;;;22.58;41.14;97323.94;5071717;28;20404;-73
2022/07/20 01:56:34;;;;;;;12.52;5.30;;;23.20;53.70;;;22.58;40.91;97328.53;5071718;28;20482;-73
2022/07/20 01:59:00;;;;;;;8.83;4.80;;;23.20;53.50;;;22.52;41.24;97327.97;5070766;28;20452;-72
2022/07/20 02:01:26;;;;;;;9.90;5.03;;;23.20;53.70;;;22.51;41.35;97320.97;5071491;28;20399;-73
2022/07/20 02:03:52;;;;;;;7.97;4.57;;;23.20;53.80;;;22.47;41.14;97325.47;5071502;28;20458;-74
2022/07/20 02:06:18;;;;;;;7.63;4.85;;;23.10;53.70;;;22.45;41.50;97332.31;5071520;28;20723;-74
2022/07/20 02:08:44;;;;;;;6.67;4.40;;;23.10;54.00;;;22.42;41.64;97328.34;5070723;28;20399;-73
2022/07/20 02:11:10;;;;;;;8.03;4.60;;;23.10;54.10;;;22.40;41.61;97331.38;5071248;28;20404;-73
2022/07/20 02:13:37;;;;;;;8.20;5.17;;;23.10;54.10;;;22.37;41.76;97332.03;5071207;28;20403;-73
2022/07/20 02:16:17;;;;;;;5.85;4.50;;;23.10;54.30;;;22.39;41.93;97327.13;5071379;28;20435;-73
2022/07/20 02:18:44;;;;;;;8.13;4.82;;;23.10;54.60;;;22.47;42.15;97328.16;5070456;28;20433;-73
2022/07/20 02:21:10;;;;;;;7.50;4.45;;;23.10;54.70;;;22.44;42.21;97336.13;5070974;28;20431;-73
2022/07/20 02:23:36;;;;;;;12.60;5.70;;;23.10;54.70;;;22.46;41.72;97331.97;5071086;28;20801;-73
2022/07/20 02:26:03;;;;;;;7.65;4.53;;;23.10;54.60;;;22.31;42.38;97332.56;5071147;28;20402;-73
2022/07/20 02:28:29;;;;;;;9.32;5.07;;;22.90;55.50;;;22.37;42.44;97329.34;5052406;28;20804;-73
2022/07/20 02:30:56;;;;;;;7.63;4.93;;;22.90;55.20;;;22.29;42.31;97332.88;5070732;28;20431;-74
2022/07/20 02:33:22;;;;;;;8.63;4.70;;;22.90;55.10;;;22.17;42.89;97329.34;5070966;28;20762;-73
2022/07/20 02:35:48;;;;;;;10.00;4.70;;;22.80;55.40;;;22.11;42.92;97328.72;5070808;28;20452;-74
2022/07/20 02:38:15;;;;;;;9.32;5.22;;;22.80;55.60;;;22.13;43.23;97331.88;5070395;28;20407;-73
2022/07/20 02:40:41;;;;;;;5.60;4.50;;;22.70;55.80;;;22.00;43.25;97331.00;5070368;28;20507;-73
2022/07/20 02:43:07;;;;;;;6.60;4.53;;;22.70;55.90;;;22.00;43.50;97336.41;5070610;28;20435;-73
2022/07/20 02:45:33;;;;;;;6.85;4.72;;;22.70;56.00;;;22.00;43.43;97322.13;5070545;28;20732;-73
2022/07/20 02:48:04;;;;;;;10.18;4.80;;;22.70;56.00;;;21.94;43.80;97328.81;5070625;28;20395;-73
2022/07/20 02:50:31;;;;;;;8.73;4.93;;;22.60;56.30;;;21.90;43.83;97330.56;5070224;28;20712;-73
2022/07/20 02:52:57;;;;;;;8.02;5.00;;;22.50;56.40;;;21.83;43.99;97330.28;5070565;28;20787;-73
2022/07/20 02:55:24;;;;;;;9.80;4.88;;;22.50;56.50;;;21.92;43.86;97321.03;5052619;28;20410;-73
2022/07/20 02:57:50;;;;;;;10.48;5.47;;;22.50;56.50;;;21.89;43.89;97331.66;5070313;28;20408;-73
2022/07/20 03:00:16;;;;;;;7.60;5.10;;;22.60;56.60;;;21.83;43.96;97327.59;5069616;28;20392;-72
2022/07/20 03:02:42;;;;;;;6.70;4.50;;;22.50;56.50;;;21.81;44.12;97335.19;5070320;28;20984;-73
2022/07/20 03:05:10;;;;;;;6.87;4.80;;;22.50;56.70;;;21.85;44.50;97326.16;5070478;28;20400;-73
2022/07/20 03:07:36;;;;;;;9.75;5.38;;;22.50;57.10;;;21.86;44.31;97330.44;5070407;28;20957;-73
2022/07/20 03:10:02;;;;;;;8.82;5.35;;;22.50;57.20;;;21.69;44.51;97330.50;5069518;28;20487;-73
2022/07/20 03:12:28;;;;;;;9.00;5.57;;;22.40;57.20;;;21.81;44.38;97335.19;5070231;28;20406;-73
2022/07/20 03:14:54;;;;;;;10.25;5.80;;;22.40;57.20;;;21.76;44.59;97335.38;5070193;28;20395;-72
2022/07/20 03:17:20;;;;;;;6.63;4.70;;;22.40;57.40;;;21.56;44.93;97339.59;5070154;28;20450;-73
2022/07/20 03:19:46;;;;;;;9.20;4.72;;;22.20;57.50;;;21.47;44.99;97330.75;5069399;28;20411;-73
2022/07/20 03:22:13;;;;;;;9.82;5.28;;;22.10;57.70;;;21.53;45.02;97334.84;5069903;28;20404;-73
2022/07/20 03:24:40;;;;;;;7.90;4.75;;;22.20;58.00;;;21.42;45.57;97334.44;5069528;28;20490;-73
2022/07/20 03:27:05;;;;;;;8.32;4.78;;;22.10;58.20;;;21.37;45.55;97329.19;5069960;28;20398;-73
2022/07/20 03:29:31;;;;;;;9.50;5.15;;;22.10;58.20;;;21.37;45.84;97333.78;5051407;28;20503;-73
2022/07/20 03:31:57;;;;;;;7.53;5.43;;;22.10;58.30;;;21.31;46.28;97330.50;5069811;28;20422;-74
2022/07/20 03:34:23;;;;;;;7.25;4.85;;;22.00;58.80;;;21.30;46.37;97331.59;5069462;28;20426;-72
2022/07/20 03:36:49;;;;;;;8.27;5.55;;;22.00;58.80;;;21.33;46.08;97330.97;5069844;28;20422;-72
2022/07/20 03:39:17;;;;;;;7.80;4.82;;;22.00;58.80;;;21.29;46.45;97331.91;5069285;28;20404;-73
2022/07/20 03:41:43;;;;;;;10.30;5.43;;;22.00;59.00;;;21.31;46.10;97332.38;5069712;28;20789;-73
2022/07/20 03:44:11;;;;;;;7.97;4.80;;;22.00;58.90;;;21.34;46.14;97335.25;5069556;28;20465;-74
2022/07/20 03:46:37;;;;;;;8.57;4.80;;;22.00;58.80;;;21.34;46.49;97334.44;5069912;28;20786;-73
2022/07/20 03:49:03;;;;;;;7.60;4.63;;;22.00;59.10;;;21.33;46.72;97335.56;5055998;28;20418;-73
2022/07/20 03:51:29;;;;;;;7.40;5.00;;;22.00;59.30;;;21.32;46.43;97337.47;5049485;28;20402;-73
2022/07/20 03:53:55;;;;;;;9.90;5.10;;;22.00;59.20;;;21.23;46.87;97336.69;5049557;28;20402;-72
2022/07/20 03:56:22;;;;;;;8.43;5.22;;;21.90;59.40;;;21.18;46.88;97332.28;5049537;28;20401;-73
2022/07/20 03:58:48;;;;;;;6.80;4.75;;;21.90;59.50;;;21.19;46.99;97325.00;5048455;28;20466;-72
2022/07/20 04:01:14;;;;;;;7.70;5.07;;;21.90;59.60;;;21.17;47.20;97328.00;5054880;28;20844;-72
2022/07/20 04:03:40;;;;;;;8.45;4.60;;;21.90;59.80;;;21.14;47.47;97325.09;5056758;28;20952;-73
2022/07/20 04:06:06;;;;;;;7.50;4.75;;;21.80;60.00;;;21.16;47.38;97326.41;5059873;28;20397;-73
2022/07/20 04:08:33;;;;;;;7.90;4.90;;;21.90;60.00;;;21.19;47.55;97331.16;5061605;28;20403;-73
2022/07/20 04:10:59;;;;;;;6.68;4.93;;;21.90;60.10;;;21.17;47.63;97332.59;5059779;28;20405;-73
2022/07/20 04:13:26;;;;;;;6.50;4.70;;;21.80;60.20;;;21.15;48.00;97338.25;5058635;28;20392;-72
2022/07/20 04:15:52;;;;;;;7.83;4.63;;;21.80;60.70;;;21.15;48.36;97335.56;5060144;28;20513;-72
2022/07/20 04:18:18;;;;;;;7.30;4.80;;;21.80;61.00;;;21.15;48.27;97338.25;5057880;28;20512;-73
2022/07/20 04:20:44;;;;;;;7.65;5.10;;;21.80;61.00;;;21.20;48.10;97331.97;5058425;28;20924;-72
2022/07/20 04:23:13;;;;;;;7.22;4.78;;;21.90;61.00;;;21.22;48.33;97335.91;5060132;28;20411;-72
2022/07/20 04:25:39;;;;;;;6.25;4.55;;;21.90;61.00;;;21.23;48.32;97336.69;5058273;28;20413;-73
2022/07/20 04:28:05;;;;;;;9.10;5.20;;;21.90;61.20;;;21.32;48.64;97336.66;5058187;28;20743;-73
2022/07/20 04:30:35;;;;;;;5.97;4.57;;;22.00;61.60;;;21.36;48.74;97343.75;5059504;28;20399;-73
2022/07/20 04:33:01;;;;;;;7.28;4.90;;;22.00;61.50;;;21.44;48.44;97334.88;5058696;28;20405;-73
2022/07/20 04:35:27;;;;;;;7.55;5.13;;;22.10;61.70;;;21.42;48.93;97342.50;5058499;28;20445;-72
2022/07/20 04:37:52;;;;;;;7.72;5.05;;;22.10;61.90;;;21.45;49.29;97341.84;5060743;28;20519;-71
2022/07/20 04:40:18;;;;;;;8.43;5.10;;;22.10;62.20;;;21.46;49.41;97339.94;5062016;28;20430;-73
2022/07/20 04:42:44;;;;;;;8.07;5.15;;;22.10;62.50;;;21.46;49.74;97339.94;5061815;28;20425;-72
2022/07/20 04:45:11;;;;;;;6.78;4.68;;;22.10;62.90;;;21.40;49.53;97343.94;5062233;28;20407;-73
2022/07/20 04:47:38;;;;;;;9.45;5.10;;;22.00;62.80;;;21.45;49.87;97343.75;5063576;28;20456;-72
2022/07/20 04:50:05;;;;;;;8.73;4.70;;;22.10;63.30;;;21.50;49.70;97347.03;5060599;28;20417;-73
2022/07/20 04:52:31;;;;;;;8.52;4.47;;;22.10;63.20;;;21.61;50.42;97348.28;5061089;28;20419;-72
2022/07/20 04:54:57;;;;;;;7.55;4.88;;;22.20;63.70;;;21.67;50.62;97340.81;5061597;28;20399;-72
2022/07/20 04:57:23;;;;;;;7.15;4.80;;;22.20;64.00;;;21.74;51.42;97340.31;5062447;28;20413;-72
2022/07/20 04:59:49;;;;;;;8.80;4.65;;;22.30;64.70;;;21.83;51.18;97335.66;5061834;28;20493;-72
2022/07/20 05:02:15;;;;;;;5.63;4.43;;;22.40;64.80;;;21.91;51.08;97330.25;5063033;28;20401;-72
2022/07/20 05:04:42;;;;;;;9.30;5.18;;;22.50;64.50;;;22.02;50.40;97335.28;5061009;28;20885;-72
2022/07/20 05:07:08;;;;;;;7.87;4.70;;;22.60;64.10;;;22.14;50.76;97332.66;5062345;28;20395;-73
2022/07/20 05:09:34;;;;;;;7.60;4.82;;;22.70;64.30;;;22.22;50.31;97334.53;5061860;28;20413;-72
2022/07/20 05:12:00;;;;;;;9.40;5.25;;;22.80;63.90;;;22.35;46.39;97331.56;5045209;28;20491;-72
2022/07/20 05:14:26;;;;;;;12.05;5.63;;;22.90;60.60;;;22.48;44.86;97326.25;5052205;28;20452;-73
2022/07/20 05:16:52;;;;;;;8.35;5.57;;;23.00;58.70;;;22.62;44.25;97337.56;5052418;28;20416;-72
2022/07/20 05:19:18;;;;;;;8.10;5.00;;;23.20;58.50;;;22.74;44.37;97335.75;5051387;28;20401;-73
2022/07/20 05:21:45;;;;;;;7.43;5.03;;;23.30;57.80;;;22.86;44.04;97339.59;5052227;28;20416;-73
2022/07/20 05:24:11;;;;;;;8.38;5.35;;;23.40;57.50;;;22.97;42.99;97332.69;5052056;28;20405;-74
2022/07/20 05:26:37;;;;;;;9.60;5.10;;;23.50;56.60;;;23.07;43.10;97337.69;5052021;28;20436;-73
2022/07/20 05:29:04;;;;;;;9.18;5.10;;;23.60;56.50;;;23.14;42.26;97338.72;5051197;28;20747;-73
2022/07/20 05:31:30;;;;;;;9.10;5.28;;;23.70;55.70;;;23.27;42.29;97341.44;5051941;28;20410;-74
2022/07/20 05:33:56;;;;;;;16.67;5.67;;;23.80;55.70;;;23.36;41.57;97342.94;5033334;28;20402;-73
2022/07/20 05:36:22;;;;;;;12.77;5.50;;;23.90;55.00;;;23.43;41.73;97343.16;5061705;28;20483;-74
2022/07/20 05:38:49;;;;;;;12.50;5.45;;;24.00;55.00;;;23.51;41.57;97345.00;5059297;28;20425;-74
2022/07/20 05:41:16;;;;;;;9.55;5.13;;;24.00;54.80;;;23.60;41.70;97346.81;5051824;28;20402;-74
2022/07/20 05:43:42;;;;;;;13.63;5.90;;;24.10;55.00;;;23.62;40.88;97349.97;5051687;28;20451;-76
2022/07/20 05:46:08;;;;;;;20.40;5.85;;;24.10;54.20;;;23.61;40.55;97346.47;5051664;28;20405;-80
2022/07/20 05:48:34;;;;;;;11.88;5.80;;;24.10;53.90;;;23.59;40.83;97353.34;5050997;28;20398;-75
2022/07/20 05:51:00;;;;;;;10.85;5.82;;;24.10;54.00;;;23.59;40.90;97356.06;5051484;28;20444;-78
2022/07/20 05:53:26;;;;;;;13.18;5.38;;;24.10;54.10;;;23.60;41.01;97358.41;5051987;28;20454;-76
2022/07/20 05:55:53;;;;;;;11.48;5.43;;;24.10;54.40;;;23.63;41.34;97359.66;5051852;28;20408;-76
2022/07/20 05:58:19;;;;;;;17.77;5.90;;;24.10;54.50;;;23.61;41.05;97364.59;5051355;28;20520;-76
2022/07/20 06:00:45;;;;;;;13.30;6.30;;;24.10;54.40;;;23.63;41.69;97368.53;5051331;28;20440;-76
2022/07/20 06:03:11;;;;;;;11.50;5.20;;;24.10;55.00;;;23.67;41.48;97371.38;5051738;28;20439;-76
2022/07/20 06:05:37;;;;;;;17.60;6.43;;;24.10;54.80;;;23.71;41.32;97367.66;5051552;28;20463;-76
2022/07/20 06:08:04;;;;;;;13.43;6.20;;;24.20;54.70;;;23.73;41.08;97365.41;5050881;28;20980;-76
2022/07/20 06:10:33;;;;;;;11.00;5.70;;;24.30;54.50;;;23.77;41.31;97373.63;5051122;28;20404;-75
2022/07/20 06:13:02;;;;;;;14.80;6.20;;;24.30;54.60;;;23.80;41.37;97372.97;5051687;28;20455;-75
2022/07/20 06:15:28;;;;;;;18.60;5.70;;;24.30;54.60;;;23.82;41.20;97378.81;5051381;28;20405;-76
2022/07/20 06:17:55;;;;;;;12.93;5.27;;;24.30;54.50;;;23.88;41.62;97375.56;5051316;28;20517;-75
2022/07/20 06:20:22;;;;;;;12.25;6.25;;;24.40;54.90;;;23.94;41.83;97373.41;5032447;28;20887;-75
2022/07/20 06:22:48;;;;;;;10.65;5.68;;;24.40;55.10;;;23.99;41.77;97375.09;5050991;28;20433;-76
2022/07/20 06:25:16;;;;;;;10.25;4.78;;;24.50;55.00;;;24.04;41.85;97372.19;5051230;28;20424;-76
2022/07/20 06:27:43;;;;;;;7.68;4.85;;;24.50;55.10;;;24.10;41.79;97382.44;5051081;28;20504;-75
2022/07/20 06:30:12;;;;;;;7.63;4.75;;;24.60;55.10;;;24.16;42.11;97399.22;5052023;28;20427;-76
2022/07/20 06:32:38;;;;;;;8.43;4.80;;;24.60;55.30;;;24.19;43.05;97393.13;5059810;28;20412;-77
2022/07/20 06:35:06;;;;;;;8.65;4.85;;;24.70;55.90;;;24.27;43.42;97393.06;5058564;28;20411;-76
2022/07/20 06:37:32;;;;;;;9.18;4.93;;;24.80;56.70;;;24.28;43.60;97389.19;5061317;28;20771;-76
2022/07/20 06:39:58;;;;;;;12.80;5.30;;;24.80;56.70;;;24.34;43.58;97387.06;5061606;28;20518;-76
2022/07/20 06:42:24;;;;;;;13.43;5.97;;;24.80;56.60;;;24.40;42.56;97387.63;5058586;28;20432;-81
2022/07/20 06:44:50;;;;;;;10.23;5.05;;;24.80;55.90;;;24.44;42.37;97385.78;5050646;28;20402;-76
2022/07/20 06:47:18;;;;;;;7.17;4.70;;;24.90;55.50;;;24.50;42.61;97385.25;5037447;28;20418;-77
2022/07/20 06:49:44;;;;;;;9.85;5.13;;;25.00;55.90;;;24.57;42.84;97395.50;5038589;28;20930;-77
2022/07/20 06:52:10;;;;;;;9.57;5.22;;;25.00;56.00;;;24.64;42.69;97393.78;5059951;28;20390;-74
2022/07/20 06:54:36;;;;;;;13.02;6.70;;;25.10;56.00;;;24.75;39.51;97394.09;5070736;28;20877;-76
2022/07/20 06:57:02;;;;;;;11.10;5.70;;;25.20;52.90;;;24.93;39.33;97394.63;5070790;28;20402;-75
2022/07/20 06:59:28;;;;;;;8.63;5.88;;;25.40;52.80;;;25.03;38.91;97399.56;5069205;28;20471;-75
2022/07/20 07:01:54;;;;;;;9.40;5.10;;;25.50;52.40;;;25.09;39.21;97390.06;5070407;28;20850;-76
2022/07/20 07:04:21;;;;;;;7.47;5.18;;;25.60;52.60;;;25.14;39.85;97392.50;5070262;28;20402;-74
2022/07/20 07:06:48;;;;;;;6.72;5.07;;;25.60;53.10;;;25.18;39.67;97398.03;5070225;28;20400;-76
2022/07/20 07:09:14;;;;;;;9.68;6.10;;;25.60;53.00;;;25.22;39.43;97399.72;5069617;28;20889;-76
2022/07/20 07:11:40;;;;;;;12.45;6.40;;;25.70;53.10;;;25.31;38.63;97405.75;5070294;28;20418;-76
2022/07/20 07:14:06;;;;;;;8.30;5.37;;;25.70;52.10;;;25.34;38.98;97405.06;5070062;28;20451;-75
2022/07/20 07:16:32;;;;;;;9.90;6.35;;;25.80;52.20;;;25.37;38.64;97406.28;5056824;28;20459;-75
2022/07/20 07:18:58;;;;;;;13.27;6.68;;;25.80;52.10;;;25.57;36.81;97402.56;5050508;28;20424;-76
2022/07/20 07:21:26;;;;;;;10.32;6.18;;;25.90;50.40;;;25.68;37.20;97397.47;5049923;28;20475;-75
2022/07/20 07:23:52;;;;;;;10.40;5.78;;;26.10;50.60;;;25.83;37.04;97402.09;5050062;28;20401;-76
2022/07/20 07:26:20;;;;;;;10.00;5.50;;;26.20;50.30;;;25.93;36.75;97400.78;5050094;28;20902;-76
2022/07/20 07:28:47;;;;;;;10.30;5.95;;;26.30;50.10;;;25.99;36.14;97396.69;5049147;28;20462;-76
2022/07/20 07:31:15;;;;;;;7.70;4.93;;;26.40;49.30;;;26.03;36.56;97392.91;5049783;28;20394;-76
2022/07/20 07:33:41;;;;;;;10.90;6.13;;;26.40;49.70;;;26.11;36.25;97393.84;5049753;28;20481;-76
2022/07/20 07:36:07;;;;;;;8.48;5.53;;;26.50;49.60;;;26.19;35.76;97380.09;5050149;28;20447;-76
2022/07/20 07:38:35;;;;;;;9.30;5.65;;;26.60;49.30;;;26.25;36.18;97386.06;5049281;28;20413;-76
2022/07/20 07:41:01;;;;;;;8.40;5.70;;;26.70;49.40;;;26.33;36.07;97381.59;5049369;28;20883;-75
2022/07/20 07:43:27;;;;;;;13.52;6.28;;;26.70;49.40;;;26.36;36.10;97384.41;5049696;28;20505;-76
2022/07/20 07:45:53;;;;;;;11.07;5.93;;;26.80;49.50;;;26.45;36.27;97384.22;5049846;28;20444;-76
2022/07/20 07:48:19;;;;;;;9.25;6.10;;;26.80;49.70;;;26.63;35.47;97384.56;5052911;28;20924;-75
2022/07/20 07:50:46;;;;;;;8.80;5.88;;;27.00;49.30;;;26.80;35.24;97392.31;5089245;22;21209;-73
2022/07/20 07:53:12;;;;;;;11.00;6.13;;;27.20;48.80;;;26.89;35.58;97387.47;5068104;28;20411;-74
2022/07/20 07:55:40;;;;;;;12.55;6.70;;;27.30;49.00;;;26.94;35.94;97390.72;5069246;28;20485;-73
2022/07/20 07:58:08;;;;;;;10.60;6.35;;;27.30;49.30;;;26.98;36.12;97385.38;5068979;28;20462;-74
2022/07/20 08:00:36;;;;;;;12.05;7.30;;;27.40;49.50;;;27.07;36.03;97372.31;5069335;28;20408;-74
2022/07/20 08:03:02;;;;;;;9.63;5.90;;;27.40;49.20;;;27.14;35.80;97372.47;5069661;28;20434;-73
2022/07/20 08:05:28;;;;;;;13.70;7.00;;;27.50;49.40;;;27.17;35.68;97382.63;5071933;28;20486;-74
2022/07/20 08:07:55;;;;;;;10.00;6.30;;;27.50;48.90;;;27.22;35.23;97373.38;5089399;28;20887;-74
2022/07/20 08:10:21;;;;;;;7.63;5.65;;;27.60;48.60;;;27.27;35.68;97381.25;5090149;28;20488;-73
2022/07/20 08:12:49;;;;;;;8.87;5.30;;;27.60;49.00;;;27.34;35.86;97373.25;5093620;28;20402;-73
2022/07/20 08:15:15;;;;;;;7.05;5.22;;;27.70;49.30;;;27.43;35.65;97378.44;5093520;28;20402;-74
2022/07/20 08:17:45;;;;;;;9.95;5.25;;;27.70;49.10;;;27.47;35.29;97382.78;5093712;28;20422;-74
2022/07/20 08:20:12;;;;;;;8.02;5.68;;;27.80;49.00;;;27.57;34.62;97376.00;5092853;28;20473;-73
2022/07/20 08:22:38;;;;;;;10.85;6.28;;;28.00;48.10;;;27.73;34.33;97376.69;5092267;28;21044;-74
2022/07/20 08:25:04;;;;;;;12.98;5.88;;;28.10;47.70;;;27.89;33.90;97373.84;5093734;28;21122;-74
2022/07/20 08:27:30;;;;;;;13.35;5.82;;;28.20;47.60;;;27.98;33.43;97374.34;5093498;28;20879;-73
2022/07/20 08:29:59;;;;;;;10.13;5.32;;;28.30;47.00;;;28.09;33.68;97378.81;5092983;28;20480;-73
2022/07/20 08:32:25;;;;;;;10.00;5.05;;;28.40;47.10;;;28.18;33.48;97381.31;5093206;28;20390;-73
2022/07/20 08:34:52;;;;;;;6.65;4.95;;;28.50;47.00;;;28.32;33.86;97389.69;5093524;28;20433;-74
2022/07/20 08:37:18;;;;;;;7.35;5.20;;;28.70;47.20;;;28.40;33.79;97390.59;5093439;28;20414;-74
2022/07/20 08:39:44;;;;;;;7.32;5.13;;;28.70;47.20;;;28.50;33.99;97390.72;5092829;28;20393;-74
2022/07/20 08:42:10;;;;;;;7.47;5.28;;;28.80;47.50;;;28.67;32.90;97388.63;5093205;28;20409;-74
2022/07/20 08:44:38;;;;;;;8.50;5.35;;;29.00;46.60;;;28.80;32.86;97385.31;5093450;28;20493;-74
2022/07/20 08:47:07;;;;;;;7.28;4.65;;;29.10;46.40;;;28.94;32.77;97383.94;5093540;28;20405;-74
2022/07/20 08:49:34;;;;;;;8.60;5.30;;;29.20;46.30;;;29.08;33.22;97381.38;5092277;28;20405;-74
2022/07/20 08:52:00;;;;;;;8.43;5.43;;;29.40;46.50;;;29.32;31.92;97385.56;5093078;28;20446;-74
2022/07/20 08:54:26;;;;;;;9.27;5.63;;;29.60;45.70;;;29.38;31.79;97390.31;5088969;28;20422;-74
2022/07/20 08:56:52;;;;;;;9.13;5.38;;;29.70;45.20;;;29.58;31.06;97390.91;5087932;28;20514;-73
2022/07/20 08:59:18;;;;;;;9.40;5.28;;;29.80;44.30;;;29.67;31.48;97402.31;5080229;28;20502;-74
2022/07/20 09:01:57;;;;;;;7.18;4.75;;;29.90;44.80;;;29.87;31.09;97400.13;5072662;28;20408;-74
2022/07/20 09:04:25;;;;;;;12.27;5.18;;;30.10;44.30;;;30.02;29.79;97407.31;5072576;28;20472;-74
2022/07/20 09:06:51;;;;;;;10.05;5.03;;;30.30;43.60;;;30.23;27.81;97401.22;5071468;28;20495;-73
2022/07/20 09:09:18;;;;;;;8.10;4.88;;;30.50;41.00;;;30.37;27.90;97409.53;5071996;28;20972;-75
2022/07/20 09:11:45;;;;;;;10.02;4.68;;;30.60;41.30;;;30.44;28.39;97403.34;5072685;28;20478;-74
2022/07/20 09:14:11;;;;;;;8.60;4.68;;;30.70;41.60;;;30.44;28.34;97404.13;5072630;28;20400;-74
2022/07/20 09:16:46;;;;;;;10.52;5.35;;;30.70;41.60;;;30.70;27.17;97406.63;5070029;28;20465;-74
2022/07/20 09:19:14;;;;;;;6.95;5.00;;;30.90;40.00;;;30.72;27.11;97407.03;5071915;28;20407;-74
2022/07/20 09:21:43;;;;;;;10.63;4.78;;;31.00;40.20;;;30.87;27.72;97402.44;5071621;28;20406;-75
2022/07/20 09:24:10;;;;;;;9.30;4.97;;;31.10;40.50;;;30.95;27.55;97398.56;5071376;28;20773;-75
2022/07/20 09:26:38;;;;;;;8.15;4.57;;;31.20;40.20;;;31.02;28.03;97408.75;5072431;28;20909;-74
2022/07/20 09:29:06;;;;;;;10.65;5.43;;;31.30;41.60;;;31.18;27.41;97402.97;5071633;28;20908;-75
2022/07/20 09:31:34;;;;;;;8.38;4.78;;;31.40;40.70;;;31.25;27.70;97405.75;5070896;28;20422;-75
2022/07/20 09:34:21;;;;;;;7.20;4.60;;;31.50;40.60;;;31.41;25.86;97414.38;5072252;28;20417;-75
2022/07/20 09:36:48;;;;;;;7.78;4.65;;;31.70;38.20;;;31.39;26.67;97412.03;5075351;28;20506;-75
2022/07/20 09:39:17;;;;;;;8.60;5.03;;;31.60;39.30;;;31.54;25.10;97402.69;5088858;28;20817;-75
2022/07/20 09:41:47;;;;;;;10.77;5.78;;;31.70;38.00;;;31.61;25.46;97407.41;5084227;28;20452;-76
2022/07/20 09:44:22;;;;;;;8.68;5.13;;;31.90;37.70;;;31.62;25.76;97405.47;5072310;28;20798;-74
2022/07/20 09:46:48;;;;;;;8.52;5.03;;;31.90;38.40;;;31.67;26.39;97407.81;5072164;28;20392;-75
2022/07/20 09:49:34;;;;;;;11.10;5.03;;;31.90;39.50;;;31.84;24.35;97396.09;5071380;28;20383;-74
2022/07/20 09:52:03;;;;;;;15.30;7.60;;;32.10;37.00;;;31.80;25.66;97398.81;5070483;28;20797;-76
2022/07/20 09:54:29;;;;;;;10.35;6.13;;;32.10;38.20;;;31.92;26.30;97405.88;5087664;28;20968;-76
2022/07/20 09:56:56;;;;;;;8.63;4.82;;;32.20;39.20;;;32.01;24.41;97400.81;5088394;28;20413;-76
2022/07/20 09:59:22;;;;;;;10.15;5.95;;;32.30;37.40;;;32.14;25.46;97399.22;5084286;28;20410;-76
2022/07/20 10:01:51;;;;;;;7.57;5.50;;;32.40;38.20;;;32.30;25.95;97396.13;5091841;28;20394;-74
2022/07/20 10:04:18;;;;;;;12.70;6.13;;;32.60;38.60;;;32.43;25.78;97404.72;5091752;28;20394;-76
2022/07/20 10:06:48;;;;;;;11.90;6.28;;;32.70;38.30;;;32.53;25.58;97390.22;5089343;28;20508;-75
2022/07/20 10:09:17;;;;;;;13.10;5.25;;;32.90;38.30;;;32.60;25.97;97393.72;5079128;28;20435;-75
2022/07/20 10:11:44;;;;;;;8.50;4.70;;;32.90;38.60;;;32.74;25.76;97401.16;5071345;28;20414;-75
2022/07/20 10:14:11;;;;;;;7.45;5.18;;;33.00;38.30;;;32.94;23.96;97395.97;5071578;28;20412;-75
2022/07/20 10:16:42;;;;;;;8.18;4.43;;;33.20;36.70;;;32.87;24.80;97394.03;5071327;28;20526;-75
2022/07/20 10:19:10;;;;;;;9.55;4.97;;;33.10;37.40;;;32.84;25.59;97388.59;5070500;28;20438;-75